ESGJ (Jönköping Airport)

 RUNWAY INFORMATION
Runway Number 01 Runway Length 7228 ft Runway Width 148 ft
Runway Elevation 733 ft Runway Displaced Threshold 0 ft Runway Surface Asphalt
Runway Number 19 Runway Length 7228 ft Runway Width 148 ft
Runway Elevation 739 ft Runway Displaced Threshold 0 ft Runway Surface Asphalt
Runway Number 11 Runway Length 1969 ft Runway Width 82 ft
Runway Elevation 727 ft Runway Displaced Threshold 0 ft Runway Surface GRE
Runway Number 29 Runway Length 1969 ft Runway Width 82 ft
Runway Elevation 738 ft Runway Displaced Threshold 0 ft Runway Surface GRE

  METAR AND TAF INFORMATION
METAR FOR ESGJ
ADDS - METARS form results

(0656 UTC 20 April 2018)
Data provider: http://aviationweather.gov/adds/metars/
 
METAR text: ESGJ 200650Z 21011KT CAVOK 15/10 Q1022
Conditions at: ESGJ (JONKOPING AIRPOR, SE) observed 0650 UTC 20 April 2018
Temperature: 15.0°C (59°F)
Dewpoint: 10.0°C (50°F) [RH = 72%]
Pressure (altimeter): 30.18 inches Hg (1022.0 mb)
Winds: from the SSW (210 degrees) at 13 MPH (11 knots; 5.7 m/s)
Visibility: 6 or more miles (10+ km)
Ceiling: ceiling and visibility are OK
Clouds: unknown
Weather: no significant weather observed at this time

METAR text: ESGJ 200620Z 21008KT CAVOK 14/09 Q1022
Conditions at: ESGJ (JONKOPING AIRPOR, SE) observed 0620 UTC 20 April 2018
Temperature: 14.0°C (57°F)
Dewpoint: 9.0°C (48°F) [RH = 72%]
Pressure (altimeter): 30.18 inches Hg (1022.0 mb)
Winds: from the SSW (210 degrees) at 9 MPH (8 knots; 4.2 m/s)
Visibility: 6 or more miles (10+ km)
Ceiling: ceiling and visibility are OK
Clouds: unknown
Weather: no significant weather observed at this time

Forecast for: ESGJ (JONKOPING AIRPOR, SE)
Text: TAF ESGJ 200530Z 2006/2015 22008KT CAVOK
Forecast period: 0600 to 1500 UTC 20 April 2018
Forecast type: FROM: standard forecast or significant change
Winds: from the SW (220 degrees) at 9 MPH (8 knots; 4.2 m/s)
Visibility: 6 or more miles (10+ km)
Clouds: not forecast
Weather: NSW  (no significant weather)

 AIRPORT FREQUENCIES
Type TWR Name TWR Frequency 118.25 MHZ

 NEARBY NAVIGATION AIDS
Type VOR-DME Name Jonkoping Frequency 115800 KHZ



Powered by Virtual Airlines Manager